Time;durP1;ratioP1;P1;durP2;ratioP2;P2;SDS_P1;SDS_P2;PMS_P1;PMS_P2;Temp;Humidity;BMP_temperature;BMP_pressure;BME280_temperature;BME280_humidity;BME280_pressure;Samples;Min_cycle;Max_cycle;Signal;HPM_P1;HPM_P2
2022/07/02 00:02:02;;;;;;;6.15;4.22;;;14.10;85.50;;;;;;5039902;28;20450;-44
2022/07/02 00:04:34;;;;;;;7.88;3.35;;;14.10;85.20;;;;;;5051563;28;20025;-45
2022/07/02 00:07:02;;;;;;;7.10;3.17;;;14.10;85.40;;;;;;5033194;28;20026;-43
2022/07/02 00:09:28;;;;;;;5.00;3.50;;;14.00;85.20;;;;;;5031752;28;20655;-43
2022/07/02 00:11:58;;;;;;;6.13;3.58;;;14.00;84.90;;;;;;5032915;28;20121;-44
2022/07/02 00:14:25;;;;;;;7.63;4.00;;;14.00;85.00;;;;;;5032049;28;20037;-43
2022/07/02 00:16:54;;;;;;;8.45;3.83;;;14.00;84.90;;;;;;5032038;28;20080;-44
2022/07/02 00:19:21;;;;;;;6.05;3.15;;;14.00;85.00;;;;;;5046270;28;20041;-43
2022/07/02 00:21:49;;;;;;;6.95;3.58;;;14.00;85.10;;;;;;5051269;28;20029;-43
2022/07/02 00:24:16;;;;;;;6.85;3.53;;;14.00;84.80;;;;;;5038134;28;20339;-43
2022/07/02 00:26:57;;;;;;;6.72;3.72;;;13.90;84.90;;;;;;5031438;28;20112;-43
2022/07/02 00:30:12;;;;;;;4.82;3.22;;;13.90;85.10;;;;;;5056017;28;20024;-43
2022/07/02 00:32:40;;;;;;;7.43;3.50;;;13.90;85.00;;;;;;5054002;28;20079;-42
2022/07/02 00:35:09;;;;;;;6.13;3.58;;;13.90;85.00;;;;;;5037517;28;20017;-42
2022/07/02 00:37:37;;;;;;;6.80;3.58;;;13.80;84.90;;;;;;5035139;28;20473;-43
2022/07/02 00:40:06;;;;;;;6.72;3.47;;;13.80;85.00;;;;;;5030448;28;20037;-42
2022/07/02 00:42:35;;;;;;;6.67;3.80;;;13.80;85.10;;;;;;5032557;28;20644;-42
2022/07/02 00:45:03;;;;;;;7.55;3.92;;;13.70;85.00;;;;;;5031307;28;20040;-42
2022/07/02 00:47:30;;;;;;;6.43;3.85;;;13.70;85.10;;;;;;5076584;28;20548;-42
2022/07/02 00:49:57;;;;;;;6.78;3.42;;;13.70;85.00;;;;;;5035312;28;20108;-42
2022/07/02 00:52:24;;;;;;;10.15;4.38;;;13.70;85.20;;;;;;5031504;28;20361;-42
2022/07/02 00:54:51;;;;;;;6.43;3.20;;;13.70;85.10;;;;;;5031742;28;20117;-41
2022/07/02 00:57:20;;;;;;;5.60;3.63;;;13.70;85.10;;;;;;5030994;28;20791;-42
2022/07/02 00:59:47;;;;;;;7.43;3.67;;;13.60;84.80;;;;;;5037085;28;20024;-44
2022/07/02 01:02:16;;;;;;;5.50;3.90;;;13.60;85.00;;;;;;5050804;28;20051;-42
2022/07/02 01:04:45;;;;;;;5.38;4.18;;;13.60;85.00;;;;;;5049812;28;20044;-43
2022/07/02 01:07:12;;;;;;;6.47;3.60;;;13.60;85.10;;;;;;5051173;28;20039;-43
2022/07/02 01:12:34;;;;;;;5.25;4.22;;;13.60;84.80;;;;;;5050504;28;20419;-43
2022/07/02 01:15:03;;;;;;;5.63;4.22;;;13.50;84.90;;;;;;5049085;28;20033;-42
2022/07/02 01:17:29;;;;;;;7.22;4.70;;;13.50;84.80;;;;;;5044160;28;20030;-44
2022/07/02 01:19:56;;;;;;;6.13;4.38;;;13.50;84.80;;;;;;5048197;28;20028;-41
2022/07/02 01:22:41;;;;;;;6.97;4.65;;;13.50;85.00;;;;;;5060273;28;20442;-43
2022/07/02 01:25:10;;;;;;;9.85;4.72;;;13.40;85.10;;;;;;5069389;28;20053;-41
2022/07/02 01:27:40;;;;;;;7.20;4.30;;;13.40;85.00;;;;;;5058872;28;20514;-43
2022/07/02 01:30:06;;;;;;;6.03;4.70;;;13.40;85.00;;;;;;5062272;28;20040;-44
2022/07/02 01:32:34;;;;;;;8.10;4.78;;;13.40;85.10;;;;;;5051603;28;20029;-42
2022/07/02 01:35:08;;;;;;;7.88;4.75;;;13.50;85.00;;;;;;5049428;28;20035;-42
2022/07/02 01:37:38;;;;;;;6.68;4.38;;;13.50;85.00;;;;;;5035545;28;20449;-43
2022/07/02 01:40:05;;;;;;;;;;;13.50;85.00;;;;;;5042808;28;20040;-41
2022/07/02 01:42:36;;;;;;;8.93;5.00;;;13.50;84.80;;;;;;5036354;28;19920;-42
2022/07/02 01:45:06;;;;;;;7.03;5.30;;;13.40;84.80;;;;;;5030351;28;20097;-42
2022/07/02 01:47:34;;;;;;;7.45;4.60;;;13.40;84.80;;;;;;5033879;28;20029;-42
2022/07/02 01:50:01;;;;;;;5.53;4.57;;;13.40;84.60;;;;;;5031787;28;20481;-42
2022/07/02 01:52:28;;;;;;;6.55;5.10;;;13.40;84.70;;;;;;5029773;28;20100;-43
2022/07/02 01:54:54;;;;;;;7.95;4.53;;;13.40;85.10;;;;;;5029902;28;20034;-42
2022/07/02 01:57:22;;;;;;;5.88;4.82;;;13.40;85.00;;;;;;5013085;28;20451;-42
2022/07/02 01:59:49;;;;;;;7.55;5.43;;;13.40;85.00;;;;;;5009882;28;20061;-43
2022/07/02 02:02:16;;;;;;;6.30;5.05;;;13.30;85.00;;;;;;5054840;28;20036;-45
2022/07/02 02:04:43;;;;;;;7.75;5.47;;;13.30;85.10;;;;;;5029535;28;20033;-42
2022/07/02 02:07:10;;;;;;;6.28;5.68;;;13.30;85.20;;;;;;5012118;28;20033;-45
2022/07/02 02:09:37;;;;;;;9.43;5.47;;;13.30;85.40;;;;;;5022047;28;20025;-42
2022/07/02 02:12:04;;;;;;;10.27;5.47;;;13.20;85.40;;;;;;5032268;28;20057;-42
2022/07/02 02:14:32;;;;;;;6.13;5.05;;;13.20;85.30;;;;;;5029556;28;20061;-43
2022/07/02 02:16:59;;;;;;;9.20;5.57;;;13.30;85.30;;;;;;5028806;28;20037;-42
2022/07/02 02:19:26;;;;;;;8.55;5.72;;;13.20;85.50;;;;;;5029465;28;20029;-42
2022/07/02 02:21:53;;;;;;;9.40;5.38;;;13.40;85.30;;;;;;5020193;28;20037;-41
2022/07/02 02:24:22;;;;;;;7.47;5.50;;;13.30;85.20;;;;;;5009794;28;20428;-43
2022/07/02 02:26:49;;;;;;;8.80;6.40;;;13.30;85.10;;;;;;5024422;28;20435;-44
2022/07/02 02:29:16;;;;;;;6.53;5.70;;;13.30;85.10;;;;;;5040126;28;20033;-41
2022/07/02 02:31:42;;;;;;;7.32;5.32;;;13.20;85.30;;;;;;5035129;28;20033;-42
2022/07/02 02:34:09;;;;;;;10.70;7.22;;;13.20;85.10;;;;;;5020214;28;20096;-42
2022/07/02 02:36:39;;;;;;;10.20;6.25;;;13.20;85.20;;;;;;5009538;28;20026;-42
2022/07/02 02:39:05;;;;;;;;;;;13.20;85.30;;;;;;5010681;28;20470;-41
2022/07/02 02:41:32;;;;;;;8.95;5.78;;;13.20;85.20;;;;;;5032592;28;20223;-41
2022/07/02 02:44:02;;;;;;;7.65;5.88;;;13.20;85.30;;;;;;5042245;28;20025;-43
2022/07/02 02:46:31;;;;;;;6.20;5.60;;;13.20;85.20;;;;;;5074992;28;20312;-42
2022/07/02 02:48:58;;;;;;;6.75;6.15;;;13.20;85.20;;;;;;5044171;28;20101;-44
2022/07/02 02:51:25;;;;;;;6.63;5.82;;;13.10;85.30;;;;;;5030318;28;20025;-41
2022/07/02 02:53:53;;;;;;;6.57;5.88;;;13.10;85.30;;;;;;5029749;28;20040;-43
2022/07/02 02:56:19;;;;;;;7.43;5.50;;;13.00;85.20;;;;;;5028076;28;20045;-44
2022/07/02 02:58:45;;;;;;;5.85;5.10;;;13.00;85.40;;;;;;5029805;28;20045;-42
2022/07/02 03:01:12;;;;;;;8.05;6.25;;;13.10;85.30;;;;;;5036692;28;20068;-43
2022/07/02 03:03:42;;;;;;;6.95;5.88;;;13.00;85.30;;;;;;5048299;28;20028;-42
2022/07/02 03:06:09;;;;;;;13.90;6.43;;;13.00;85.30;;;;;;5050146;28;20060;-42
2022/07/02 03:08:34;;;;;;;7.95;5.65;;;13.00;85.40;;;;;;5047756;28;20029;-42
2022/07/02 03:11:01;;;;;;;9.13;6.28;;;13.00;85.40;;;;;;5036495;28;20486;-43
2022/07/02 03:13:27;;;;;;;7.75;6.28;;;13.00;85.40;;;;;;5048800;28;20033;-42
2022/07/02 03:15:54;;;;;;;10.05;5.88;;;13.00;85.20;;;;;;5040136;28;20029;-42
2022/07/02 03:18:21;;;;;;;9.65;5.95;;;13.00;85.20;;;;;;5048200;28;20029;-45
2022/07/02 03:20:48;;;;;;;6.97;5.63;;;13.00;85.30;;;;;;5039920;28;20059;-45
2022/07/02 03:23:15;;;;;;;7.53;5.00;;;13.00;85.30;;;;;;5049470;28;20095;-44
2022/07/02 03:25:42;;;;;;;7.45;5.57;;;13.00;85.30;;;;;;5051339;28;20041;-42
2022/07/02 03:28:09;;;;;;;8.57;5.53;;;13.00;85.20;;;;;;5052542;28;20573;-42
2022/07/02 03:30:34;;;;;;;6.68;5.82;;;13.00;85.10;;;;;;5061315;28;20434;-43
2022/07/02 03:33:05;;;;;;;8.80;5.47;;;13.00;85.20;;;;;;5060331;28;20023;-41
2022/07/02 03:35:32;;;;;;;8.65;5.97;;;13.00;85.30;;;;;;5071102;28;20060;-41
2022/07/02 03:38:03;;;;;;;8.90;5.70;;;13.00;85.30;;;;;;5049415;28;20033;-42
2022/07/02 03:40:28;;;;;;;7.20;6.05;;;13.00;85.40;;;;;;5032030;28;20069;-42
2022/07/02 03:42:55;;;;;;;10.20;6.38;;;13.00;85.10;;;;;;5035252;28;20072;-41
2022/07/02 03:45:22;;;;;;;7.25;6.30;;;13.00;85.30;;;;;;5032072;28;20398;-42
2022/07/02 03:47:49;;;;;;;9.00;6.10;;;13.10;85.30;;;;;;5045346;28;20461;-42
2022/07/02 03:50:18;;;;;;;6.10;5.40;;;13.10;85.40;;;;;;5049489;28;20904;-42
2022/07/02 03:52:44;;;;;;;7.47;5.90;;;13.00;85.40;;;;;;5050353;28;20052;-42
2022/07/02 03:55:11;;;;;;;8.43;6.20;;;13.00;85.30;;;;;;5047457;28;20033;-44
2022/07/02 03:57:38;;;;;;;11.57;6.18;;;13.00;85.40;;;;;;5050685;28;20045;-42
2022/07/02 04:00:07;;;;;;;8.70;6.10;;;13.10;85.30;;;;;;5051303;28;20044;-44
2022/07/02 04:02:32;;;;;;;8.13;6.68;;;13.10;85.50;;;;;;5054359;28;20112;-41
2022/07/02 04:04:59;;;;;;;6.60;5.32;;;13.10;85.30;;;;;;5050692;28;20096;-41
2022/07/02 04:07:26;;;;;;;7.80;6.85;;;13.20;85.20;;;;;;5048526;28;20052;-45
2022/07/02 04:09:53;;;;;;;13.80;6.07;;;13.20;85.10;;;;;;5051687;28;20366;-42
2022/07/02 04:12:20;;;;;;;9.02;5.35;;;13.20;85.10;;;;;;5049462;28;20021;-42
2022/07/02 04:14:46;;;;;;;7.47;5.43;;;13.20;85.00;;;;;;5027693;28;20032;-43
2022/07/02 04:17:13;;;;;;;8.10;5.72;;;13.20;85.00;;;;;;5047610;28;20036;-42
2022/07/02 04:19:40;;;;;;;10.88;6.18;;;13.20;84.80;;;;;;5051294;28;20028;-42
2022/07/02 04:22:10;;;;;;;9.73;6.00;;;13.20;85.00;;;;;;5048871;28;20029;-43
2022/07/02 04:24:40;;;;;;;6.70;5.00;;;13.20;84.80;;;;;;5048393;28;20160;-43
2022/07/02 04:27:07;;;;;;;7.85;5.95;;;13.20;85.00;;;;;;5051293;28;20446;-49
2022/07/02 04:29:36;;;;;;;5.82;5.13;;;13.20;85.10;;;;;;5057948;28;20669;-47
2022/07/02 04:32:05;;;;;;;8.73;6.03;;;13.30;85.20;;;;;;5051994;28;20029;-41
2022/07/02 04:34:32;;;;;;;7.63;5.97;;;13.40;85.00;;;;;;5046500;28;20041;-42
2022/07/02 04:36:59;;;;;;;6.80;5.55;;;13.40;85.20;;;;;;5046728;28;20043;-41
2022/07/02 04:39:26;;;;;;;8.43;5.50;;;13.50;85.20;;;;;;5052937;28;20837;-44
2022/07/02 04:41:52;;;;;;;10.35;5.28;;;13.50;85.00;;;;;;5051044;28;20629;-44
2022/07/02 04:44:20;;;;;;;7.80;5.68;;;13.60;85.00;;;;;;5044010;28;20435;-42
2022/07/02 04:46:50;;;;;;;11.90;5.97;;;13.60;84.70;;;;;;5062605;28;20124;-44
2022/07/02 04:49:18;;;;;;;9.13;6.45;;;13.70;84.80;;;;;;5044977;28;20021;-42
2022/07/02 04:51:45;;;;;;;6.47;5.38;;;13.80;84.70;;;;;;5051454;28;20382;-42
2022/07/02 04:54:12;;;;;;;9.35;5.13;;;13.80;84.70;;;;;;5041005;28;20033;-43
2022/07/02 04:56:39;;;;;;;8.23;5.95;;;13.90;84.40;;;;;;5030686;28;20036;-45
2022/07/02 04:59:06;;;;;;;7.70;5.22;;;13.90;84.40;;;;;;5031249;28;20032;-43
2022/07/02 05:01:33;;;;;;;6.25;4.63;;;13.90;84.50;;;;;;5030786;28;20034;-42
2022/07/02 05:04:00;;;;;;;7.05;5.15;;;13.90;84.50;;;;;;5031970;28;20049;-42
2022/07/02 05:06:27;;;;;;;7.90;5.07;;;14.00;84.40;;;;;;5053690;28;20547;-45
2022/07/02 05:08:53;;;;;;;6.05;4.55;;;14.00;84.40;;;;;;5049688;28;20021;-45
2022/07/02 05:11:19;;;;;;;8.50;5.43;;;14.10;84.30;;;;;;5050251;28;20025;-42
2022/07/02 05:13:46;;;;;;;7.32;5.45;;;14.20;84.50;;;;;;5050377;28;20097;-43
2022/07/02 05:16:13;;;;;;;7.50;5.18;;;14.20;84.60;;;;;;5030275;28;20037;-44
2022/07/02 05:18:40;;;;;;;7.57;5.60;;;14.30;84.50;;;;;;5029402;28;20477;-44
2022/07/02 05:21:09;;;;;;;8.48;5.93;;;14.40;84.50;;;;;;5030853;28;20043;-43
2022/07/02 05:23:41;;;;;;;6.90;4.50;;;14.40;84.20;;;;;;5033689;28;20324;-43
2022/07/02 05:26:10;;;;;;;9.15;4.85;;;14.40;84.10;;;;;;5040670;28;20037;-42
2022/07/02 05:28:38;;;;;;;;;;;14.50;83.80;;;;;;5051285;28;20021;-41
2022/07/02 05:31:03;;;;;;;8.15;4.53;;;14.60;83.80;;;;;;5046309;28;19920;-43
2022/07/02 05:33:30;;;;;;;6.50;4.18;;;14.60;83.80;;;;;;5048753;28;20024;-43
2022/07/02 05:35:57;;;;;;;6.85;3.92;;;14.70;83.70;;;;;;5048893;28;20032;-43
2022/07/02 05:38:24;;;;;;;7.13;5.22;;;14.90;83.80;;;;;;5049219;28;20093;-43
2022/07/02 05:40:52;;;;;;;9.30;4.25;;;15.00;83.80;;;;;;5043338;28;20064;-42
2022/07/02 05:43:22;;;;;;;6.13;4.22;;;15.20;83.50;;;;;;5049430;28;20036;-44
2022/07/02 05:45:52;;;;;;;7.40;4.40;;;15.30;83.10;;;;;;5045452;28;20407;-43
2022/07/02 05:48:18;;;;;;;;;;;15.50;82.70;;;;;;5049543;28;20033;-44
2022/07/02 05:50:47;;;;;;;8.00;3.40;;;15.80;82.30;;;;;;5048873;28;19999;-42
2022/07/02 05:53:16;;;;;;;7.05;3.35;;;16.10;81.60;;;;;;5047784;28;20029;-43
2022/07/02 05:55:42;;;;;;;8.20;3.10;;;16.50;80.20;;;;;;5039249;28;20104;-43
2022/07/02 05:58:10;;;;;;;3.95;2.85;;;17.00;79.10;;;;;;5049269;28;20175;-43
2022/07/02 06:00:36;;;;;;;7.15;3.67;;;17.30;78.30;;;;;;5033613;28;20025;-44
2022/07/02 06:03:03;;;;;;;4.97;3.08;;;17.50;77.30;;;;;;5048498;28;20453;-44
2022/07/02 06:08:16;;;;;;;5.97;3.55;;;17.80;75.80;;;;;;5044128;28;20483;-45
2022/07/02 06:10:44;;;;;;;6.47;3.15;;;17.70;76.40;;;;;;5040821;28;20029;-45
2022/07/02 06:13:09;;;;;;;8.10;2.92;;;17.70;76.10;;;;;;5048993;28;20077;-45
2022/07/02 06:15:36;;;;;;;8.70;2.80;;;17.70;75.60;;;;;;5048647;28;20466;-44
2022/07/02 06:18:03;;;;;;;6.68;3.33;;;17.90;74.30;;;;;;5031280;28;20025;-44
2022/07/02 06:20:30;;;;;;;6.18;2.83;;;18.20;74.50;;;;;;5029056;28;20030;-44
2022/07/02 06:22:56;;;;;;;4.53;2.30;;;18.50;73.90;;;;;;5044382;28;20521;-45
2022/07/02 06:25:25;;;;;;;5.65;2.53;;;18.60;72.80;;;;;;5045778;28;20076;-45
2022/07/02 06:27:50;;;;;;;4.45;2.63;;;18.90;73.00;;;;;;5048038;28;20033;-48
2022/07/02 06:30:17;;;;;;;4.20;2.50;;;19.10;72.30;;;;;;5048939;28;20133;-46
2022/07/02 06:32:48;;;;;;;5.30;2.40;;;19.00;72.10;;;;;;5049133;28;20343;-45
2022/07/02 06:35:16;;;;;;;7.10;3.55;;;18.90;71.80;;;;;;5042216;28;20068;-45
2022/07/02 06:37:43;;;;;;;6.97;2.90;;;18.80;71.70;;;;;;5047505;28;20079;-45
2022/07/02 06:40:10;;;;;;;4.50;2.63;;;18.70;72.80;;;;;;5045989;28;20029;-45
2022/07/02 06:42:40;;;;;;;9.68;3.22;;;18.60;72.50;;;;;;5048738;28;20033;-47
2022/07/02 06:45:07;;;;;;;;;;;18.70;73.80;;;;;;5040009;28;20442;-48
2022/07/02 06:47:39;;;;;;;6.22;3.05;;;18.50;72.80;;;;;;5046984;28;19946;-46
2022/07/02 06:50:06;;;;;;;8.93;2.90;;;18.40;72.60;;;;;;5048706;28;20025;-45
2022/07/02 06:52:33;;;;;;;9.00;3.40;;;18.40;73.30;;;;;;5046142;28;20434;-46
2022/07/02 06:54:59;;;;;;;10.25;3.55;;;18.60;74.20;;;;;;5029209;28;20170;-46
2022/07/02 06:57:26;;;;;;;6.90;3.33;;;18.50;72.90;;;;;;5044455;28;20096;-45
2022/07/02 06:59:53;;;;;;;7.43;3.20;;;18.60;73.20;;;;;;5047601;28;20057;-48
2022/07/02 07:02:21;;;;;;;5.55;3.28;;;18.80;72.70;;;;;;5051061;28;20464;-44
2022/07/02 07:04:49;;;;;;;7.63;3.05;;;18.90;70.60;;;;;;5027740;28;20037;-45
2022/07/02 07:07:17;;;;;;;5.35;2.67;;;18.80;70.80;;;;;;5038969;28;20075;-45
2022/07/02 07:09:46;;;;;;;9.45;2.63;;;18.80;72.00;;;;;;5041614;28;20385;-45
2022/07/02 07:12:13;;;;;;;7.00;3.28;;;18.90;71.50;;;;;;5036784;28;20025;-46
2022/07/02 07:14:42;;;;;;;6.13;2.35;;;18.90;71.00;;;;;;5041061;28;20052;-49
2022/07/02 07:17:09;;;;;;;5.47;2.53;;;18.90;70.90;;;;;;5035974;28;20033;-45
2022/07/02 07:19:35;;;;;;;4.90;2.72;;;19.00;69.60;;;;;;5036403;28;20726;-45
2022/07/02 07:22:02;;;;;;;10.38;2.35;;;19.50;69.90;;;;;;5039708;28;20036;-47
2022/07/02 07:24:30;;;;;;;5.70;2.28;;;19.90;68.30;;;;;;5047642;28;20037;-46
2022/07/02 07:26:59;;;;;;;5.68;2.65;;;20.10;67.50;;;;;;5044286;28;20025;-46
2022/07/02 07:29:28;;;;;;;8.20;2.30;;;20.70;65.20;;;;;;5060669;28;20357;-46
2022/07/02 07:31:55;;;;;;;3.07;1.50;;;21.20;61.80;;;;;;5050383;28;20033;-46
2022/07/02 07:34:22;;;;;;;7.13;1.65;;;21.60;61.40;;;;;;5048666;28;20025;-46
2022/07/02 07:36:53;;;;;;;5.82;1.95;;;21.80;60.50;;;;;;5047705;28;20036;-45
2022/07/02 07:39:20;;;;;;;6.30;1.98;;;22.40;60.10;;;;;;5048882;28;20028;-45
2022/07/02 07:41:47;;;;;;;6.55;2.03;;;22.60;56.60;;;;;;5050861;28;20064;-45
2022/07/02 07:44:14;;;;;;;3.72;1.40;;;22.90;57.50;;;;;;5048754;28;20461;-45
2022/07/02 07:46:41;;;;;;;4.75;1.58;;;23.20;54.80;;;;;;5068527;28;20035;-46
2022/07/02 07:49:08;;;;;;;4.75;1.45;;;23.40;55.50;;;;;;5054813;28;20025;-46
2022/07/02 07:51:35;;;;;;;3.70;0.82;;;24.00;51.80;;;;;;5047397;28;20106;-46
2022/07/02 07:54:02;;;;;;;6.43;1.13;;;24.00;51.20;;;;;;5044810;28;20032;-46
2022/07/02 07:56:29;;;;;;;2.70;0.90;;;24.20;52.30;;;;;;5047232;28;20150;-46
2022/07/02 07:58:55;;;;;;;3.47;0.85;;;24.30;50.10;;;;;;5044342;28;20033;-45
2022/07/02 08:01:22;;;;;;;3.78;0.90;;;24.40;51.10;;;;;;5039403;28;20365;-45
2022/07/02 08:03:55;;;;;;;3.75;1.27;;;24.20;48.70;;;;;;5047215;28;20120;-47
2022/07/02 08:06:22;;;;;;;2.72;1.10;;;24.10;49.20;;;;;;5047749;28;20130;-46
2022/07/02 08:08:49;;;;;;;7.18;1.42;;;24.20;49.40;;;;;;5046054;28;20033;-46
2022/07/02 08:11:15;;;;;;;3.22;1.25;;;24.10;48.90;;;;;;5051412;28;20039;-45
2022/07/02 08:13:42;;;;;;;5.82;1.23;;;24.40;47.50;;;;;;5041341;28;20068;-46
2022/07/02 08:16:12;;;;;;;4.57;0.90;;;24.80;49.50;;;;;;5051334;28;20055;-46
2022/07/02 08:18:39;;;;;;;4.35;1.05;;;24.90;48.30;;;;;;5035928;28;20037;-46
2022/07/02 08:21:06;;;;;;;3.88;0.93;;;25.30;46.90;;;;;;5031006;28;20044;-46
2022/07/02 08:23:35;;;;;;;3.08;0.90;;;25.60;47.50;;;;;;5046133;28;20119;-46
2022/07/02 08:26:01;;;;;;;4.10;0.95;;;25.60;46.50;;;;;;5044819;28;20351;-46
2022/07/02 08:28:27;;;;;;;1.73;0.77;;;25.60;43.20;;;;;;5039324;28;20025;-46
2022/07/02 08:30:56;;;;;;;3.60;1.02;;;25.40;44.00;;;;;;5031056;28;20036;-46
2022/07/02 08:33:23;;;;;;;2.78;0.88;;;25.10;44.00;;;;;;5046712;28;20039;-46
2022/07/02 08:35:50;;;;;;;3.30;0.65;;;25.20;45.80;;;;;;5031889;28;20108;-46
2022/07/02 08:38:16;;;;;;;2.33;0.85;;;25.20;42.00;;;;;;5030778;28;20071;-46
2022/07/02 08:40:43;;;;;;;1.73;0.70;;;25.30;43.70;;;;;;5031996;28;20053;-46
2022/07/02 08:43:12;;;;;;;4.82;1.25;;;25.20;42.80;;;;;;5043624;28;20052;-46
2022/07/02 08:45:43;;;;;;;4.78;1.10;;;25.10;42.90;;;;;;5053883;28;20067;-46
2022/07/02 08:48:12;;;;;;;2.35;0.70;;;25.30;43.70;;;;;;5051000;28;20055;-48
2022/07/02 08:50:40;;;;;;;1.77;0.65;;;25.50;45.40;;;;;;5050421;28;20037;-46
2022/07/02 08:53:08;;;;;;;2.87;0.90;;;25.50;44.10;;;;;;5048293;28;20384;-46
2022/07/02 08:55:38;;;;;;;2.47;0.70;;;25.80;44.60;;;;;;5031524;28;20365;-47
2022/07/02 08:58:06;;;;;;;2.63;0.40;;;26.30;44.30;;;;;;5031479;28;20072;-48
2022/07/02 09:00:32;;;;;;;2.75;0.60;;;25.90;43.10;;;;;;5039247;28;20028;-46
2022/07/02 09:03:02;;;;;;;2.22;0.70;;;25.90;43.40;;;;;;5050282;28;20036;-50
2022/07/02 09:05:30;;;;;;;1.73;0.70;;;25.60;42.90;;;;;;5041427;28;20026;-46
2022/07/02 09:07:57;;;;;;;15.18;1.33;;;25.60;42.30;;;;;;5040800;28;20115;-47
2022/07/02 09:10:24;;;;;;;4.50;0.90;;;25.60;42.20;;;;;;5050276;28;20017;-46
2022/07/02 09:12:53;;;;;;;5.00;1.00;;;25.50;41.60;;;;;;5050268;28;20125;-47
2022/07/02 09:15:20;;;;;;;3.20;0.60;;;25.50;43.50;;;;;;5050554;28;20465;-46
2022/07/02 09:17:47;;;;;;;4.10;0.73;;;25.60;41.60;;;;;;5049085;28;20080;-47
2022/07/02 09:20:14;;;;;;;2.30;0.77;;;25.20;42.30;;;;;;5030095;28;20053;-48
2022/07/02 09:22:44;;;;;;;2.40;0.80;;;25.20;42.90;;;;;;5040469;28;20028;-46
2022/07/02 09:25:30;;;;;;;2.05;0.80;;;25.60;42.50;;;;;;5046384;28;20033;-48
2022/07/02 09:28:03;;;;;;;2.05;0.70;;;25.90;44.20;;;;;;5051117;28;20028;-48
2022/07/02 09:30:36;;;;;;;2.47;0.50;;;25.80;43.50;;;;;;5035228;28;20167;-46
2022/07/02 09:33:33;;;;;;;2.58;0.50;;;25.40;41.50;;;;;;5047635;28;20032;-50
2022/07/02 09:36:08;;;;;;;1.60;0.80;;;25.40;41.00;;;;;;5046539;28;20028;-48
2022/07/02 09:38:47;;;;;;;1.35;0.50;;;25.20;43.00;;;;;;5030192;28;20033;-46
2022/07/02 09:41:18;;;;;;;4.07;0.77;;;25.60;44.90;;;;;;5036313;28;20045;-47
2022/07/02 09:43:45;;;;;;;2.13;0.32;;;25.60;42.30;;;;;;5049352;28;20712;-49
2022/07/02 09:46:20;;;;;;;2.17;0.65;;;25.90;44.00;;;;;;5047456;28;20084;-46
2022/07/02 09:48:48;;;;;;;4.40;0.70;;;26.10;42.50;;;;;;5038400;28;20078;-49
2022/07/02 09:51:18;;;;;;;1.88;0.60;;;26.00;40.80;;;;;;5048660;28;20033;-46
2022/07/02 09:53:54;;;;;;;4.72;0.70;;;26.00;42.00;;;;;;5052872;28;20069;-48
2022/07/02 09:56:23;;;;;;;4.05;0.50;;;26.00;40.00;;;;;;5047715;28;20029;-47
2022/07/02 09:58:51;;;;;;;2.08;0.80;;;26.20;39.00;;;;;;5052779;28;20077;-47
2022/07/02 10:01:22;;;;;;;2.22;0.50;;;25.60;38.90;;;;;;5051484;28;20047;-48
2022/07/02 10:03:54;;;;;;;2.22;0.52;;;26.00;40.80;;;;;;5052326;28;20030;-46
2022/07/02 10:06:20;;;;;;;1.83;0.40;;;25.90;39.10;;;;;;5034398;28;20021;-46
2022/07/02 10:08:48;;;;;;;2.83;0.57;;;25.60;40.30;;;;;;5036949;28;20477;-46
2022/07/02 10:11:15;;;;;;;2.05;0.68;;;25.80;39.20;;;;;;5035813;28;20057;-45
2022/07/02 10:13:42;;;;;;;7.05;0.65;;;25.60;40.00;;;;;;5028731;28;20033;-46
2022/07/02 10:16:14;;;;;;;2.30;0.50;;;25.60;38.30;;;;;;5045224;28;20103;-46
2022/07/02 10:18:42;;;;;;;2.03;0.60;;;25.60;38.70;;;;;;5046747;28;20056;-47
2022/07/02 10:21:11;;;;;;;3.60;0.87;;;25.80;39.50;;;;;;5048251;28;20067;-46
2022/07/02 10:23:40;;;;;;;3.03;0.82;;;25.80;37.80;;;;;;5045847;28;20024;-46
2022/07/02 10:26:09;;;;;;;3.70;0.80;;;25.90;40.30;;;;;;5046215;28;20045;-46
2022/07/02 10:28:36;;;;;;;2.78;0.55;;;25.90;40.30;;;;;;5051048;28;20103;-45
2022/07/02 10:31:17;;;;;;;2.10;0.50;;;26.00;39.50;;;;;;5050995;28;20435;-46
2022/07/02 10:33:49;;;;;;;3.38;0.80;;;25.90;39.70;;;;;;5060595;28;20041;-46
2022/07/02 10:36:16;;;;;;;1.20;0.60;;;26.30;40.10;;;;;;5072796;28;20041;-47
2022/07/02 10:38:55;;;;;;;2.70;0.70;;;26.30;40.00;;;;;;5048338;28;20036;-46
2022/07/02 10:41:32;;;;;;;3.10;0.73;;;26.30;39.80;;;;;;5063162;28;20144;-46
2022/07/02 10:44:01;;;;;;;2.90;0.50;;;26.20;40.60;;;;;;5047766;28;20098;-48
2022/07/02 10:46:33;;;;;;;;;;;26.10;40.80;;;;;;5035538;28;20028;-47
2022/07/02 10:49:04;;;;;;;1.48;0.73;;;25.90;39.40;;;;;;5041981;28;19964;-48
2022/07/02 10:51:36;;;;;;;2.03;0.68;;;25.70;41.50;;;;;;5043620;28;20057;-46
2022/07/02 10:54:08;;;;;;;2.13;0.40;;;25.90;40.80;;;;;;5026932;28;20029;-46
2022/07/02 10:56:54;;;;;;;1.55;0.60;;;25.80;39.10;;;;;;5031936;28;20026;-46
2022/07/02 10:59:38;;;;;;;2.88;0.70;;;26.10;41.20;;;;;;5029509;28;20047;-46
2022/07/02 11:02:07;;;;;;;2.83;1.25;;;26.20;40.70;;;;;;5028666;28;20029;-46
2022/07/02 11:04:35;;;;;;;3.43;0.60;;;26.30;42.30;;;;;;5028543;28;20030;-46
2022/07/02 11:07:12;;;;;;;3.90;1.20;;;25.70;39.40;;;;;;5041808;28;20130;-47
2022/07/02 11:09:57;;;;;;;2.38;0.55;;;25.20;41.50;;;;;;5050057;28;20511;-46
2022/07/02 11:12:49;;;;;;;2.67;0.75;;;25.10;41.50;;;;;;5029089;28;20044;-47
2022/07/02 11:15:33;;;;;;;1.42;0.60;;;25.00;41.70;;;;;;5028680;28;20041;-46
2022/07/02 11:18:05;;;;;;;3.35;0.57;;;25.30;42.70;;;;;;5043085;28;20048;-47
2022/07/02 11:20:35;;;;;;;2.20;0.68;;;25.60;41.70;;;;;;5043248;28;20376;-46
2022/07/02 11:23:03;;;;;;;2.20;0.80;;;25.40;39.40;;;;;;5027616;28;20308;-46
2022/07/02 11:25:31;;;;;;;4.05;0.82;;;24.80;41.70;;;;;;5064583;28;20088;-45
2022/07/02 11:28:16;;;;;;;1.73;0.57;;;24.80;43.30;;;;;;5045882;28;20028;-48
2022/07/02 11:30:43;;;;;;;4.13;1.17;;;25.30;44.60;;;;;;5035808;28;20032;-47
2022/07/02 11:33:14;;;;;;;2.95;0.93;;;25.80;42.10;;;;;;5028412;28;20017;-46
2022/07/02 11:35:53;;;;;;;3.33;0.90;;;25.80;42.80;;;;;;5029287;28;20022;-46
2022/07/02 11:38:20;;;;;;;3.90;0.77;;;25.40;40.80;;;;;;5034511;28;20040;-50
2022/07/02 11:40:48;;;;;;;3.80;1.25;;;25.00;43.60;;;;;;5036543;28;20045;-46
2022/07/02 11:43:19;;;;;;;2.78;0.77;;;24.70;44.50;;;;;;5046374;28;20025;-46
2022/07/02 11:45:50;;;;;;;3.63;0.90;;;24.40;43.60;;;;;;5051979;28;20025;-47
2022/07/02 11:48:21;;;;;;;4.68;0.77;;;24.10;43.40;;;;;;5050616;28;20023;-46
2022/07/02 11:51:00;;;;;;;2.20;0.55;;;24.40;45.70;;;;;;5051298;28;20029;-46
2022/07/02 11:53:27;;;;;;;;;;;24.30;45.40;;;;;;5052338;28;20028;-46
2022/07/02 11:56:06;;;;;;;2.70;0.80;;;24.20;44.80;;;;;;5044022;28;19909;-47
2022/07/02 11:58:44;;;;;;;4.88;1.00;;;24.80;47.30;;;;;;5031134;28;20061;-47
2022/07/02 12:01:28;;;;;;;4.57;1.45;;;24.70;44.30;;;;;;5032647;28;20795;-47
2022/07/02 12:04:03;;;;;;;3.28;1.00;;;24.00;44.80;;;;;;5037326;28;20107;-46
2022/07/02 12:06:37;;;;;;;4.07;0.80;;;23.70;47.60;;;;;;5030909;28;20036;-46
2022/07/02 12:09:07;;;;;;;1.48;0.60;;;23.70;47.10;;;;;;5046245;28;20031;-46
2022/07/02 12:11:47;;;;;;;;;;;24.30;48.90;;;;;;5050607;28;20040;-46
2022/07/02 12:14:14;;;;;;;3.15;0.93;;;24.50;45.90;;;;;;5051212;28;20324;-46
2022/07/02 12:16:46;;;;;;;4.05;0.80;;;24.90;46.80;;;;;;5050867;28;20037;-47
2022/07/02 12:19:14;;;;;;;5.22;0.85;;;24.50;45.00;;;;;;5051547;28;20040;-47
2022/07/02 12:21:59;;;;;;;3.55;0.60;;;24.00;45.70;;;;;;5032540;28;20041;-47
2022/07/02 12:24:29;;;;;;;2.97;0.68;;;23.90;47.20;;;;;;5048253;28;20036;-46
2022/07/02 12:27:00;;;;;;;2.55;0.80;;;23.70;47.60;;;;;;5051848;28;20091;-46
2022/07/02 12:32:20;;;;;;;3.42;1.20;;;23.70;48.20;;;;;;5059538;28;20036;-46
2022/07/02 12:35:04;;;;;;;1.85;0.85;;;23.40;45.90;;;;;;5031808;28;20036;-46
2022/07/02 12:37:39;;;;;;;2.75;1.00;;;23.20;47.00;;;;;;5032526;28;20391;-45
2022/07/02 12:40:17;;;;;;;3.70;0.60;;;23.40;49.40;;;;;;5031868;28;20032;-46
2022/07/02 12:42:47;;;;;;;2.45;0.60;;;23.80;49.80;;;;;;5032374;28;20052;-46
2022/07/02 12:45:24;;;;;;;;;;;23.90;47.60;;;;;;5043346;28;20047;-45
2022/07/02 12:48:16;;;;;;;5.15;0.88;;;23.80;47.00;;;;;;5049479;28;19909;-46
2022/07/02 12:50:46;;;;;;;4.57;0.70;;;23.50;48.70;;;;;;5036050;28;20037;-47
2022/07/02 12:53:31;;;;;;;4.38;0.98;;;23.30;49.70;;;;;;5042537;28;20033;-47
2022/07/02 12:56:02;;;;;;;2.30;0.60;;;23.10;48.80;;;;;;5050067;28;20493;-47
2022/07/02 12:58:30;;;;;;;2.63;0.90;;;23.10;47.80;;;;;;5050105;28;20445;-46
2022/07/02 13:00:57;;;;;;;3.20;1.35;;;23.30;47.70;;;;;;5021620;28;20041;-47
2022/07/02 13:03:27;;;;;;;2.67;0.60;;;23.50;50.10;;;;;;5031329;28;20022;-46
2022/07/02 13:05:58;;;;;;;1.52;0.70;;;23.40;48.90;;;;;;5034064;28;20025;-46
2022/07/02 13:08:25;;;;;;;2.22;0.90;;;23.90;49.80;;;;;;5042173;28;20020;-45